Time;durP1;ratioP1;P1;durP2;ratioP2;P2;SDS_P1;SDS_P2;PMS_P1;PMS_P2;Temp;Humidity;BMP_temperature;BMP_pressure;BME280_temperature;BME280_humidity;BME280_pressure;Samples;Min_cycle;Max_cycle;Signal;HPM_P1;HPM_P2
2022/12/30 00:00:49;;;;;;;9.90;3.30;;;8.30;99.90;;;;;;5032469;28;20803;-63
2022/12/30 00:03:16;;;;;;;7.47;3.30;;;8.30;99.90;;;;;;5032688;28;20418;-63
2022/12/30 00:05:43;;;;;;;6.28;2.88;;;8.30;99.90;;;;;;5032435;28;20423;-64
2022/12/30 00:08:45;;;;;;;9.15;3.38;;;8.30;99.90;;;;;;5032108;28;20425;-63
2022/12/30 00:10:58;;;;;;;8.73;3.40;;;8.30;99.90;;;;;;5031863;28;20422;-64
2022/12/30 00:33:09;;;;;;;12.37;3.50;;;8.20;99.90;;;;;;5036436;28;20914;-63
2022/12/30 00:35:38;;;;;;;9.20;3.10;;;8.20;99.90;;;;;;5036616;28;20434;-62
2022/12/30 00:38:05;;;;;;;6.50;2.80;;;8.30;99.90;;;;;;5036238;28;20422;-63
2022/12/30 00:40:32;;;;;;;6.55;2.60;;;8.30;99.90;;;;;;5037726;28;20415;-63
2022/12/30 00:43:07;;;;;;;8.65;2.90;;;8.30;99.90;;;;;;5036221;28;20414;-63
2022/12/30 00:45:36;;;;;;;11.93;3.38;;;8.30;99.90;;;;;;5036909;28;20426;-64
2022/12/30 00:56:15;;;;;;;7.65;3.38;;;8.20;99.90;;;;;;5035565;28;20418;-63
2022/12/30 00:58:43;;;;;;;6.03;2.70;;;8.20;99.90;;;;;;5035374;28;20922;-63
2022/12/30 01:01:10;;;;;;;7.93;2.75;;;8.20;99.90;;;;;;5035818;28;20418;-63
2022/12/30 01:03:36;;;;;;;9.10;3.30;;;8.30;99.90;;;;;;5035313;28;20421;-63
2022/12/30 01:06:06;;;;;;;7.72;2.65;;;8.30;99.90;;;;;;5035771;28;20423;-63
2022/12/30 01:08:33;;;;;;;8.98;2.67;;;8.30;99.90;;;;;;5035962;28;20802;-64
2022/12/30 01:11:04;;;;;;;10.63;3.30;;;8.30;99.90;;;;;;5035466;28;20425;-64
2022/12/30 01:13:31;;;;;;;7.85;2.67;;;8.30;99.90;;;;;;5035571;28;20462;-63
2022/12/30 01:16:07;;;;;;;9.10;2.90;;;8.30;99.90;;;;;;5035588;28;20439;-63
2022/12/30 01:18:34;;;;;;;5.60;2.70;;;8.40;99.90;;;;;;5035648;28;20496;-64
2022/12/30 01:21:01;;;;;;;9.30;3.00;;;8.30;99.90;;;;;;5035263;28;20419;-64
2022/12/30 01:23:28;;;;;;;8.60;2.80;;;8.30;99.90;;;;;;5035416;28;20431;-63
2022/12/30 01:25:55;;;;;;;7.40;2.50;;;8.30;99.90;;;;;;5035220;28;20429;-63
2022/12/30 01:28:21;;;;;;;6.80;3.00;;;8.30;99.90;;;;;;5034939;28;20829;-64
2022/12/30 01:30:48;;;;;;;8.45;2.67;;;8.40;99.70;;;;;;5034836;28;20411;-63
2022/12/30 01:33:16;;;;;;;7.68;3.15;;;8.30;99.60;;;;;;5034473;28;20430;-63
2022/12/30 01:35:43;;;;;;;7.63;2.70;;;8.30;99.50;;;;;;5035100;28;20502;-63
2022/12/30 01:38:10;;;;;;;8.60;2.53;;;8.30;99.30;;;;;;5034371;28;20419;-63
2022/12/30 01:40:39;;;;;;;9.43;2.70;;;8.30;99.10;;;;;;5035408;28;20795;-63
2022/12/30 01:43:11;;;;;;;9.40;2.90;;;8.30;99.00;;;;;;5035172;28;20411;-62
2022/12/30 01:45:39;;;;;;;8.63;2.88;;;8.20;99.00;;;;;;5035015;28;20407;-63
2022/12/30 01:48:11;;;;;;;9.65;2.88;;;8.20;99.30;;;;;;5035015;28;20420;-62
2022/12/30 01:50:47;;;;;;;7.95;2.85;;;8.20;99.50;;;;;;5035052;28;20429;-63
2022/12/30 01:53:16;;;;;;;6.22;2.22;;;8.10;99.50;;;;;;5034988;28;20419;-64
2022/12/30 01:55:49;;;;;;;6.77;2.50;;;8.10;99.50;;;;;;5035160;28;20434;-62
2022/12/30 01:58:19;;;;;;;9.35;2.65;;;8.10;99.50;;;;;;5034284;28;20456;-62
2022/12/30 02:00:47;;;;;;;6.45;2.33;;;8.10;99.60;;;;;;5034558;28;20459;-63
2022/12/30 02:03:14;;;;;;;7.47;2.90;;;8.10;99.70;;;;;;5034014;28;20427;-64
2022/12/30 02:05:45;;;;;;;7.47;2.90;;;8.10;99.90;;;;;;5034380;28;20423;-63
2022/12/30 02:08:13;;;;;;;8.20;2.80;;;8.10;99.90;;;;;;5034011;28;20914;-63
2022/12/30 02:10:45;;;;;;;8.38;2.70;;;8.10;99.90;;;;;;5034060;28;20423;-64
2022/12/30 02:13:13;;;;;;;6.30;2.80;;;8.10;99.90;;;;;;5033993;28;20906;-64
2022/12/30 02:15:52;;;;;;;6.85;2.60;;;8.10;99.90;;;;;;5033708;28;20431;-64
2022/12/30 02:18:25;;;;;;;6.70;2.60;;;8.10;99.90;;;;;;5033797;28;20895;-64
2022/12/30 02:21:16;;;;;;;7.22;2.88;;;8.20;99.90;;;;;;5034162;28;20425;-64
2022/12/30 02:24:26;;;;;;;10.35;3.13;;;8.20;99.90;;;;;;5034221;28;20422;-63
2022/12/30 02:27:26;;;;;;;8.00;3.33;;;8.20;99.90;;;;;;5034439;28;20452;-64
2022/12/30 02:30:19;;;;;;;10.63;3.40;;;8.20;99.90;;;;;;5033926;28;20410;-64
2022/12/30 02:33:03;;;;;;;9.35;3.20;;;8.20;99.90;;;;;;5033576;28;20407;-64
2022/12/30 02:35:36;;;;;;;9.73;3.47;;;8.10;99.90;;;;;;5034381;28;20434;-65
2022/12/30 02:38:14;;;;;;;9.45;3.17;;;8.10;99.90;;;;;;5033561;28;20446;-64
2022/12/30 02:46:30;;;;;;;8.38;2.80;;;8.00;99.90;;;;;;5033450;28;20890;-63
2022/12/30 02:49:00;;;;;;;9.32;3.30;;;8.00;99.90;;;;;;5032978;28;20418;-64
2022/12/30 02:54:13;;;;;;;9.60;3.45;;;8.00;99.90;;;;;;5033450;28;20830;-62
2022/12/30 02:56:48;;;;;;;8.07;2.60;;;8.00;99.90;;;;;;5033561;28;20530;-65
2022/12/30 03:05:13;;;;;;;11.00;2.80;;;8.00;99.90;;;;;;5033078;28;20398;-62
2022/12/30 03:07:47;;;;;;;8.63;2.97;;;8.00;99.90;;;;;;5033027;28;20467;-63
2022/12/30 03:13:07;;;;;;;10.30;2.77;;;8.00;99.90;;;;;;5033126;28;20438;-64
2022/12/30 03:15:42;;;;;;;9.65;2.90;;;8.00;99.90;;;;;;5032833;28;20422;-63
2022/12/30 03:18:11;;;;;;;9.30;3.30;;;8.00;99.90;;;;;;5032385;28;20790;-64
2022/12/30 03:20:41;;;;;;;9.48;2.88;;;7.90;99.90;;;;;;5032813;28;20845;-63
2022/12/30 03:28:44;;;;;;;7.90;2.90;;;7.80;99.90;;;;;;5032708;28;20422;-63
2022/12/30 03:31:14;;;;;;;7.30;2.90;;;7.80;99.90;;;;;;5032831;28;20423;-64
2022/12/30 03:33:42;;;;;;;9.23;3.45;;;7.70;99.90;;;;;;5033543;28;20415;-63
2022/12/30 03:36:14;;;;;;;11.93;3.30;;;7.70;99.90;;;;;;5032463;28;20426;-64
2022/12/30 03:38:46;;;;;;;10.70;3.30;;;7.70;99.90;;;;;;5032848;28;20779;-64
2022/12/30 03:41:13;;;;;;;10.38;3.53;;;7.60;99.90;;;;;;5032582;28;20475;-63
2022/12/30 03:43:42;;;;;;;8.35;3.72;;;7.50;99.90;;;;;;5033041;28;20427;-64
2022/12/30 03:46:09;;;;;;;8.93;3.33;;;7.50;99.90;;;;;;5033181;28;20434;-64
2022/12/30 03:48:36;;;;;;;12.45;3.40;;;7.40;99.90;;;;;;5035467;28;20430;-64
2022/12/30 03:51:02;;;;;;;9.68;2.90;;;7.40;99.90;;;;;;5035892;28;20411;-64
2022/12/30 03:53:30;;;;;;;13.80;4.10;;;7.40;99.90;;;;;;5037428;28;20788;-63
2022/12/30 03:55:57;;;;;;;8.50;3.13;;;7.30;99.90;;;;;;5039712;28;20450;-63
2022/12/30 03:58:24;;;;;;;9.50;3.75;;;7.30;99.90;;;;;;5038903;28;20415;-63
2022/12/30 04:00:51;;;;;;;9.93;3.47;;;7.20;99.90;;;;;;5037963;28;20414;-63
2022/12/30 04:03:18;;;;;;;9.50;3.75;;;7.20;99.90;;;;;;5035556;28;20419;-63
2022/12/30 04:05:45;;;;;;;6.70;3.55;;;7.10;99.90;;;;;;5032258;28;20437;-64
2022/12/30 04:10:52;;;;;;;9.18;3.17;;;7.10;99.90;;;;;;5110664;27;20344;-63
2022/12/30 04:13:19;;;;;;;8.73;3.67;;;7.20;99.90;;;;;;5110260;28;20442;-63
2022/12/30 04:15:48;;;;;;;9.88;3.20;;;7.20;99.90;;;;;;5109629;28;20886;-64
2022/12/30 04:18:15;;;;;;;9.80;3.58;;;7.30;99.90;;;;;;5109898;28;20454;-64
2022/12/30 04:20:42;;;;;;;10.57;4.55;;;7.30;99.90;;;;;;5110003;28;20777;-64
2022/12/30 04:23:09;;;;;;;8.93;3.50;;;7.30;99.90;;;;;;5111527;28;20413;-63
2022/12/30 04:25:35;;;;;;;8.82;3.70;;;7.40;99.90;;;;;;5110256;28;20417;-64
2022/12/30 04:28:04;;;;;;;10.98;3.38;;;7.40;99.90;;;;;;5110841;28;20409;-63
2022/12/30 04:30:30;;;;;;;10.60;4.88;;;7.50;99.90;;;;;;5109937;28;20431;-64
2022/12/30 04:32:57;;;;;;;8.57;3.45;;;7.50;99.90;;;;;;5110489;28;20409;-63
2022/12/30 04:35:24;;;;;;;10.40;3.77;;;7.50;99.90;;;;;;5109544;28;20453;-64
2022/12/30 04:37:51;;;;;;;9.20;3.70;;;7.40;99.90;;;;;;5109805;28;20420;-64
2022/12/30 04:40:18;;;;;;;9.43;3.55;;;7.40;99.90;;;;;;5109553;28;20405;-64
2022/12/30 04:42:45;;;;;;;8.93;3.70;;;7.30;99.90;;;;;;5110569;28;20416;-62
2022/12/30 04:45:13;;;;;;;10.30;4.18;;;7.30;99.90;;;;;;5109626;28;20424;-63
2022/12/30 04:47:40;;;;;;;11.52;3.90;;;7.20;99.90;;;;;;5109796;28;20420;-63
2022/12/30 04:50:08;;;;;;;9.15;4.10;;;7.20;99.90;;;;;;5109646;28;20421;-64
2022/12/30 04:52:35;;;;;;;9.97;4.20;;;7.20;99.90;;;;;;5109258;28;20489;-63
2022/12/30 04:55:02;;;;;;;10.02;3.90;;;7.10;99.90;;;;;;5109161;28;20413;-63
2022/12/30 04:57:28;;;;;;;11.15;3.90;;;7.10;99.90;;;;;;5109250;28;20412;-63
2022/12/30 04:59:55;;;;;;;10.02;4.70;;;7.10;99.90;;;;;;5109691;28;20415;-63
2022/12/30 05:02:23;;;;;;;9.17;4.20;;;7.10;99.90;;;;;;5109457;28;20846;-64
2022/12/30 05:04:50;;;;;;;9.95;3.45;;;7.10;99.90;;;;;;5109686;28;20424;-63
2022/12/30 05:07:16;;;;;;;12.32;4.15;;;7.10;99.90;;;;;;5110025;28;20409;-64
2022/12/30 05:09:43;;;;;;;13.30;4.70;;;7.10;99.90;;;;;;5120555;28;20497;-63
2022/12/30 05:12:10;;;;;;;11.73;4.80;;;7.10;99.90;;;;;;5130259;28;20411;-62
2022/12/30 05:14:36;;;;;;;11.10;4.90;;;7.10;99.90;;;;;;5130118;28;20752;-64
2022/12/30 05:17:03;;;;;;;9.05;4.60;;;7.10;99.90;;;;;;5130562;28;20408;-64
2022/12/30 05:19:31;;;;;;;12.30;4.78;;;7.10;99.90;;;;;;5130305;28;20411;-64
2022/12/30 05:21:58;;;;;;;9.30;4.45;;;7.00;99.90;;;;;;5117770;28;20486;-63
2022/12/30 05:27:09;;;;;;;10.25;4.40;;;7.00;99.90;;;;;;5116240;28;20387;-64
2022/12/30 05:29:36;;;;;;;9.02;4.25;;;7.00;99.90;;;;;;5117171;28;20788;-63
2022/12/30 05:32:03;;;;;;;14.50;4.82;;;6.90;99.90;;;;;;5116441;28;20527;-64
2022/12/30 05:34:31;;;;;;;10.18;4.72;;;6.80;99.90;;;;;;5116322;28;20412;-63
2022/12/30 05:36:57;;;;;;;12.98;4.80;;;6.80;99.90;;;;;;5116055;28;20426;-64
2022/12/30 05:39:24;;;;;;;15.23;4.18;;;6.80;99.90;;;;;;5117040;28;20405;-63
2022/12/30 05:41:51;;;;;;;10.63;4.97;;;6.80;99.90;;;;;;5117344;28;20408;-63
2022/12/30 05:44:18;;;;;;;13.97;5.10;;;6.80;99.90;;;;;;5118476;28;20408;-64
2022/12/30 05:46:44;;;;;;;10.65;4.53;;;6.80;99.90;;;;;;5118689;28;20408;-63
2022/12/30 05:49:11;;;;;;;8.88;5.07;;;6.70;99.90;;;;;;5121364;28;20411;-64
2022/12/30 05:51:39;;;;;;;11.30;4.40;;;6.70;99.90;;;;;;5121683;28;20412;-64
2022/12/30 05:54:06;;;;;;;10.98;4.40;;;6.60;99.90;;;;;;5123119;28;20419;-65
2022/12/30 05:56:33;;;;;;;10.77;4.70;;;6.60;99.90;;;;;;5123390;28;20880;-64
2022/12/30 05:58:59;;;;;;;9.95;4.00;;;6.50;99.90;;;;;;5121368;28;20411;-63
2022/12/30 06:01:26;;;;;;;10.80;4.22;;;6.50;99.90;;;;;;5121115;28;20400;-63
2022/12/30 06:03:55;;;;;;;8.80;3.70;;;6.50;99.90;;;;;;5115464;28;20419;-63
2022/12/30 06:06:22;;;;;;;9.40;3.53;;;6.40;99.90;;;;;;5115990;28;20404;-64
2022/12/30 06:08:50;;;;;;;10.48;3.70;;;6.40;99.90;;;;;;5115027;28;20419;-64
2022/12/30 06:11:17;;;;;;;10.90;3.60;;;6.40;99.90;;;;;;5115054;28;20866;-63
2022/12/30 06:13:44;;;;;;;10.48;3.45;;;6.40;99.90;;;;;;5114893;28;20420;-64
2022/12/30 06:16:11;;;;;;;9.23;4.00;;;6.40;99.90;;;;;;5114479;28;20888;-63
2022/12/30 06:18:37;;;;;;;9.60;3.50;;;6.40;99.90;;;;;;5114328;28;20768;-63
2022/12/30 06:21:04;;;;;;;9.52;3.50;;;6.40;99.90;;;;;;5114604;28;20768;-64
2022/12/30 06:23:31;;;;;;;12.05;3.75;;;6.40;99.90;;;;;;5114301;28;20463;-62
2022/12/30 06:26:00;;;;;;;7.93;3.00;;;6.40;99.90;;;;;;5114461;28;20423;-64
2022/12/30 06:28:28;;;;;;;10.60;3.60;;;6.40;99.90;;;;;;5114324;28;20404;-65
2022/12/30 06:30:55;;;;;;;8.18;3.30;;;6.40;99.90;;;;;;5114443;28;20507;-63
2022/12/30 06:33:23;;;;;;;11.57;3.75;;;6.40;99.90;;;;;;5113284;28;20772;-64
2022/12/30 06:35:49;;;;;;;9.80;3.13;;;6.40;99.90;;;;;;5114500;28;20412;-64
2022/12/30 06:38:16;;;;;;;10.85;3.33;;;6.30;99.90;;;;;;5114265;28;20408;-63
2022/12/30 06:40:44;;;;;;;8.75;2.80;;;6.30;99.90;;;;;;5114335;28;20598;-60
2022/12/30 06:43:12;;;;;;;11.45;3.00;;;6.30;99.90;;;;;;5114042;28;20416;-64
2022/12/30 06:45:39;;;;;;;10.90;4.07;;;6.30;99.90;;;;;;5113635;28;20408;-62
2022/12/30 06:48:06;;;;;;;7.38;2.58;;;6.30;99.90;;;;;;5114158;28;20439;-63
2022/12/30 06:50:33;;;;;;;9.97;2.83;;;6.30;99.90;;;;;;5113682;28;20424;-63
2022/12/30 06:52:59;;;;;;;8.20;2.78;;;6.30;99.90;;;;;;5113995;28;20412;-63
2022/12/30 06:55:26;;;;;;;9.63;3.20;;;6.30;99.90;;;;;;5113872;28;20430;-63
2022/12/30 06:57:53;;;;;;;8.10;2.70;;;6.30;99.90;;;;;;5113950;28;20409;-63
2022/12/30 07:00:21;;;;;;;8.55;2.92;;;6.30;99.90;;;;;;5114117;28;20404;-64
2022/12/30 07:02:48;;;;;;;11.65;2.50;;;6.30;99.90;;;;;;5114438;28;20412;-63
2022/12/30 07:05:15;;;;;;;11.85;3.10;;;6.40;99.90;;;;;;5124500;28;20404;-63
2022/12/30 07:07:42;;;;;;;9.57;3.20;;;6.40;99.90;;;;;;5129618;28;20416;-64
2022/12/30 07:10:09;;;;;;;9.75;2.83;;;6.40;99.90;;;;;;5128822;28;20435;-64
2022/12/30 07:12:35;;;;;;;7.18;2.90;;;6.40;99.90;;;;;;5129426;28;20405;-63
2022/12/30 07:15:02;;;;;;;9.98;2.90;;;6.30;99.90;;;;;;5130212;28;20485;-64
2022/12/30 07:17:30;;;;;;;8.32;2.25;;;6.40;99.90;;;;;;5125516;28;20435;-64
2022/12/30 07:19:57;;;;;;;14.10;2.80;;;6.30;99.90;;;;;;5115019;28;20400;-65
2022/12/30 07:22:24;;;;;;;10.23;2.53;;;6.30;99.90;;;;;;5114032;28;20896;-64
2022/12/30 07:24:50;;;;;;;7.47;2.47;;;6.30;99.90;;;;;;5113875;28;20408;-64
2022/12/30 07:27:17;;;;;;;10.93;3.27;;;6.30;99.90;;;;;;5113970;28;20822;-65
2022/12/30 07:29:44;;;;;;;10.55;3.13;;;6.20;99.90;;;;;;5113784;28;20436;-64
2022/12/30 07:32:11;;;;;;;10.40;2.70;;;6.10;99.90;;;;;;5113183;28;20412;-64
2022/12/30 07:34:39;;;;;;;11.50;2.70;;;6.10;99.90;;;;;;5113232;28;20416;-64
2022/12/30 07:37:06;;;;;;;6.82;2.90;;;6.10;99.90;;;;;;5113420;28;20408;-65
2022/12/30 07:39:33;;;;;;;10.30;2.88;;;6.10;99.90;;;;;;5115158;28;20408;-64
2022/12/30 07:42:00;;;;;;;10.65;6.00;;;6.10;99.90;;;;;;5113266;28;20416;-63
2022/12/30 07:44:26;;;;;;;9.32;3.30;;;6.00;99.90;;;;;;5112503;28;20412;-63
2022/12/30 07:46:53;;;;;;;14.50;2.87;;;6.00;99.90;;;;;;5114024;28;20419;-66
2022/12/30 07:49:20;;;;;;;10.77;2.50;;;6.10;99.90;;;;;;5113499;28;20784;-64
2022/12/30 07:51:48;;;;;;;6.85;2.40;;;6.10;99.90;;;;;;5113893;28;20431;-62
2022/12/30 07:54:14;;;;;;;9.50;2.70;;;6.10;99.90;;;;;;5114098;28;20504;-64
2022/12/30 07:56:41;;;;;;;13.27;2.90;;;6.10;99.90;;;;;;5118819;28;20423;-64
2022/12/30 07:59:08;;;;;;;12.77;2.95;;;6.10;99.90;;;;;;5118806;28;20411;-64
2022/12/30 08:01:35;;;;;;;7.15;2.30;;;6.10;99.90;;;;;;5114938;28;20407;-63
2022/12/30 08:04:01;;;;;;;9.60;2.50;;;6.10;99.90;;;;;;5114019;28;20900;-63
2022/12/30 08:06:28;;;;;;;5.88;2.50;;;6.10;99.90;;;;;;5114846;28;20407;-64
2022/12/30 08:08:56;;;;;;;9.50;2.65;;;6.10;99.90;;;;;;5114386;28;20412;-64
2022/12/30 08:11:23;;;;;;;8.23;2.53;;;6.10;99.90;;;;;;5115245;28;20420;-63
2022/12/30 08:13:50;;;;;;;9.05;2.70;;;6.10;99.90;;;;;;5116884;28;20408;-64
2022/12/30 08:16:17;;;;;;;6.03;2.55;;;6.10;99.90;;;;;;5114153;28;20408;-64
2022/12/30 08:18:44;;;;;;;10.35;3.22;;;6.10;99.90;;;;;;5114324;28;20491;-64
2022/12/30 08:21:14;;;;;;;8.40;3.50;;;6.20;99.90;;;;;;5114183;28;20879;-65
2022/12/30 08:23:44;;;;;;;8.43;3.65;;;6.20;99.90;;;;;;5114571;28;20412;-63
2022/12/30 08:26:14;;;;;;;12.02;5.80;;;6.30;99.90;;;;;;5113651;28;20412;-65
2022/12/30 08:28:41;;;;;;;16.70;8.02;;;6.30;99.90;;;;;;5113875;28;20416;-64
2022/12/30 08:31:08;;;;;;;13.20;5.75;;;6.30;99.90;;;;;;5113698;28;20423;-64
2022/12/30 08:33:35;;;;;;;13.55;6.53;;;6.40;99.90;;;;;;5113469;28;20412;-64
2022/12/30 08:36:03;;;;;;;9.90;5.17;;;6.40;99.90;;;;;;5113387;28;20408;-65
2022/12/30 08:38:30;;;;;;;17.40;9.52;;;6.40;99.90;;;;;;5114754;28;20404;-64
2022/12/30 08:41:05;;;;;;;11.13;5.20;;;6.50;99.90;;;;;;5113408;28;20427;-64
2022/12/30 08:43:33;;;;;;;9.45;3.80;;;6.50;99.90;;;;;;5113068;28;20463;-64
2022/12/30 08:46:00;;;;;;;8.85;3.67;;;6.60;99.90;;;;;;5113639;28;20412;-65
2022/12/30 08:48:27;;;;;;;7.22;2.78;;;6.60;99.90;;;;;;5113093;28;20415;-64
2022/12/30 08:50:54;;;;;;;7.70;2.37;;;6.60;99.90;;;;;;5112910;28;20420;-64
2022/12/30 08:53:21;;;;;;;7.80;2.87;;;6.70;99.90;;;;;;5113004;28;20450;-64
2022/12/30 08:55:48;;;;;;;9.63;2.72;;;6.80;99.90;;;;;;5113133;28;20418;-63
2022/12/30 08:58:15;;;;;;;7.63;2.50;;;6.80;99.90;;;;;;5116620;28;20435;-65
2022/12/30 09:00:43;;;;;;;5.23;2.10;;;6.90;99.90;;;;;;5117341;28;20423;-66
2022/12/30 09:03:10;;;;;;;4.57;1.95;;;6.90;99.90;;;;;;5117244;28;20419;-63
2022/12/30 09:05:36;;;;;;;6.15;2.05;;;7.00;99.90;;;;;;5116719;28;20400;-63
2022/12/30 09:08:03;;;;;;;6.93;2.10;;;7.00;99.90;;;;;;5118360;28;20408;-63
2022/12/30 09:10:30;;;;;;;7.53;2.50;;;7.10;99.90;;;;;;5117592;28;20427;-63
2022/12/30 09:12:57;;;;;;;8.65;2.15;;;7.20;99.90;;;;;;5117235;28;20411;-63
2022/12/30 09:15:23;;;;;;;6.50;1.95;;;7.20;99.90;;;;;;5117263;28;20412;-63
2022/12/30 09:17:51;;;;;;;7.70;2.53;;;7.30;99.90;;;;;;5117629;28;20876;-64
2022/12/30 09:20:18;;;;;;;4.68;2.10;;;7.30;99.90;;;;;;5118753;28;20415;-65
2022/12/30 09:22:45;;;;;;;6.55;2.38;;;7.30;99.90;;;;;;5117675;28;20416;-64
2022/12/30 09:25:12;;;;;;;6.30;2.13;;;7.40;99.90;;;;;;5116703;28;20404;-64
2022/12/30 09:27:39;;;;;;;5.70;2.00;;;7.40;99.90;;;;;;5117887;28;20412;-63
2022/12/30 09:30:07;;;;;;;6.95;2.17;;;7.50;99.90;;;;;;5117726;28;20430;-64
2022/12/30 09:32:34;;;;;;;6.15;2.20;;;7.50;99.90;;;;;;5117620;28;20416;-63
2022/12/30 09:35:02;;;;;;;7.63;2.10;;;7.60;99.90;;;;;;5116809;28;20414;-64
2022/12/30 09:37:29;;;;;;;5.05;1.98;;;7.60;99.90;;;;;;5116069;28;20507;-64
2022/12/30 09:39:56;;;;;;;8.27;2.40;;;7.70;99.90;;;;;;5116382;28;20417;-64
2022/12/30 09:45:23;;;;;;;8.25;2.30;;;7.80;99.90;;;;;;5116389;28;20486;-64
2022/12/30 09:47:52;;;;;;;6.13;2.10;;;7.80;99.90;;;;;;5116381;28;20427;-64
2022/12/30 09:50:31;;;;;;;5.83;1.90;;;7.90;99.90;;;;;;5115843;28;20416;-64
2022/12/30 09:53:03;;;;;;;5.03;2.10;;;7.90;99.90;;;;;;5116925;28;20452;-64
2022/12/30 09:55:33;;;;;;;7.00;2.20;;;8.00;99.90;;;;;;5115754;28;20524;-64
2022/12/30 09:58:04;;;;;;;8.30;2.20;;;8.00;99.90;;;;;;5116811;28;20912;-63
2022/12/30 10:00:35;;;;;;;6.18;2.15;;;8.10;99.90;;;;;;5118322;28;20768;-64
2022/12/30 10:03:06;;;;;;;6.40;1.90;;;8.10;99.90;;;;;;5121523;28;20459;-64
2022/12/30 10:05:45;;;;;;;3.95;1.70;;;8.20;99.90;;;;;;5117701;28;20420;-64
2022/12/30 10:08:25;;;;;;;5.30;2.10;;;8.20;99.90;;;;;;5121540;28;20408;-63
2022/12/30 10:10:57;;;;;;;5.40;2.00;;;8.20;99.90;;;;;;5116685;28;20434;-64
2022/12/30 10:13:34;;;;;;;4.43;1.80;;;8.20;99.90;;;;;;5118302;28;20868;-63
2022/12/30 10:16:06;;;;;;;6.55;1.80;;;8.20;99.90;;;;;;5114787;28;20880;-64
2022/12/30 10:18:51;;;;;;;6.35;2.33;;;8.30;99.90;;;;;;5115468;28;20408;-63
2022/12/30 10:21:29;;;;;;;6.15;2.03;;;8.30;99.90;;;;;;5114927;28;20437;-64
2022/12/30 10:24:06;;;;;;;5.40;1.73;;;8.30;99.90;;;;;;5116690;28;20612;-64
2022/12/30 10:26:41;;;;;;;7.17;2.10;;;8.40;99.90;;;;;;5115686;28;20884;-64
2022/12/30 10:29:15;;;;;;;4.68;1.77;;;8.40;99.90;;;;;;5115767;28;20408;-64
2022/12/30 10:31:45;;;;;;;6.68;2.25;;;8.50;99.90;;;;;;5116228;28;20812;-64
2022/12/30 10:34:15;;;;;;;6.90;2.20;;;8.50;99.90;;;;;;5115915;28;20448;-64
2022/12/30 10:36:49;;;;;;;8.05;2.28;;;8.50;99.90;;;;;;5114690;28;20726;-63
2022/12/30 10:39:18;;;;;;;5.60;2.30;;;8.60;99.90;;;;;;5114659;28;20461;-64
2022/12/30 10:41:58;;;;;;;5.95;2.42;;;8.60;99.90;;;;;;5115203;28;20416;-63
2022/12/30 10:44:30;;;;;;;7.45;1.88;;;8.70;99.90;;;;;;5114717;28;20414;-63
2022/12/30 10:47:28;;;;;;;5.78;1.80;;;8.70;99.90;;;;;;5124309;28;20416;-64
2022/12/30 10:50:18;;;;;;;7.97;2.60;;;8.80;99.90;;;;;;5131025;28;20485;-63
2022/12/30 10:52:46;;;;;;;5.63;2.03;;;8.80;99.90;;;;;;5132858;28;20761;-64
2022/12/30 10:55:22;;;;;;;4.38;1.70;;;8.80;99.90;;;;;;5125067;28;20418;-64
2022/12/30 10:57:56;;;;;;;6.70;2.13;;;8.80;99.80;;;;;;5122168;28;20452;-64
2022/12/30 11:00:23;;;;;;;5.43;2.00;;;8.90;99.80;;;;;;5120654;28;20411;-64
2022/12/30 11:02:57;;;;;;;5.13;1.70;;;8.90;99.90;;;;;;5119647;28;20430;-64
2022/12/30 11:05:33;;;;;;;6.37;2.10;;;8.90;99.90;;;;;;5116328;28;20520;-64
2022/12/30 11:08:02;;;;;;;5.90;1.90;;;9.00;99.60;;;;;;5114053;28;20522;-64
2022/12/30 11:10:29;;;;;;;4.60;1.67;;;9.00;99.20;;;;;;5113196;28;20415;-64
2022/12/30 11:15:54;;;;;;;6.60;2.55;;;9.00;99.10;;;;;;5113726;28;20477;-64
2022/12/30 11:18:27;;;;;;;6.70;1.90;;;9.00;98.70;;;;;;5112252;28;20896;-64
2022/12/30 11:20:55;;;;;;;6.47;2.20;;;9.00;99.00;;;;;;5113384;27;20428;-63
2022/12/30 11:23:29;;;;;;;5.03;1.83;;;9.10;99.10;;;;;;5113026;28;20404;-63
2022/12/30 11:25:56;;;;;;;7.97;1.90;;;9.10;99.20;;;;;;5113264;28;20536;-64
2022/12/30 11:28:26;;;;;;;5.75;2.05;;;9.10;99.00;;;;;;5113438;28;20411;-65
2022/12/30 11:31:01;;;;;;;5.53;2.00;;;9.20;99.00;;;;;;5113222;28;20429;-63
2022/12/30 11:33:31;;;;;;;5.83;1.80;;;9.20;98.90;;;;;;5113092;28;20474;-62
2022/12/30 11:36:13;;;;;;;7.22;2.15;;;9.20;98.60;;;;;;5113644;28;20408;-62
2022/12/30 11:38:42;;;;;;;7.97;2.20;;;9.20;98.50;;;;;;5113160;28;20442;-61
2022/12/30 11:41:30;;;;;;;7.78;2.20;;;9.20;98.40;;;;;;5113096;28;20748;-62
2022/12/30 11:44:13;;;;;;;5.43;2.28;;;9.30;98.10;;;;;;5106769;28;20415;-63
2022/12/30 11:46:43;;;;;;;6.50;1.90;;;9.30;98.10;;;;;;5112496;28;20419;-62
2022/12/30 11:49:27;;;;;;;5.27;1.83;;;9.40;97.90;;;;;;5112790;28;20420;-61
2022/12/30 11:51:56;;;;;;;5.25;1.90;;;9.40;97.50;;;;;;5112595;28;20455;-62
2022/12/30 11:54:26;;;;;;;5.63;2.10;;;9.40;97.30;;;;;;5113426;28;20946;-61
2022/12/30 11:56:55;;;;;;;4.17;2.10;;;9.50;97.10;;;;;;5113888;28;20501;-61
2022/12/30 11:59:26;;;;;;;6.20;1.83;;;9.40;97.00;;;;;;5115907;28;20423;-62
2022/12/30 12:01:57;;;;;;;6.50;2.20;;;9.50;97.20;;;;;;5115763;28;20407;-63
2022/12/30 12:04:32;;;;;;;6.28;2.70;;;9.50;97.00;;;;;;5116613;28;20412;-60
2022/12/30 12:07:00;;;;;;;5.13;2.17;;;9.50;96.70;;;;;;5113185;28;20411;-62
2022/12/30 12:09:37;;;;;;;5.07;1.77;;;9.50;96.60;;;;;;5113292;28;20412;-62
2022/12/30 12:12:11;;;;;;;5.55;2.00;;;9.50;96.70;;;;;;5113271;28;20431;-62
2022/12/30 12:14:51;;;;;;;6.15;2.20;;;9.50;96.80;;;;;;5113770;28;20405;-62
2022/12/30 12:17:29;;;;;;;5.80;1.90;;;9.50;96.80;;;;;;5113867;28;20891;-62
2022/12/30 12:20:03;;;;;;;4.60;2.50;;;9.50;96.90;;;;;;5113108;28;20465;-62
2022/12/30 12:22:35;;;;;;;6.72;2.20;;;9.50;97.00;;;;;;5113347;28;20872;-63
2022/12/30 12:25:14;;;;;;;4.03;1.90;;;9.50;97.30;;;;;;5113479;28;20877;-62
2022/12/30 12:27:41;;;;;;;4.80;1.90;;;9.50;97.30;;;;;;5112806;28;20408;-62
2022/12/30 12:30:12;;;;;;;3.17;1.70;;;9.50;96.90;;;;;;5113008;28;20867;-62
2022/12/30 12:33:04;;;;;;;5.28;2.20;;;9.60;96.70;;;;;;5116369;28;20463;-62
2022/12/30 12:35:41;;;;;;;4.63;2.10;;;9.60;96.80;;;;;;5117372;28;20408;-61
2022/12/30 12:38:23;;;;;;;4.80;2.10;;;9.60;96.90;;;;;;5116386;28;20411;-61
2022/12/30 12:41:04;;;;;;;5.63;2.10;;;9.60;96.80;;;;;;5116361;28;20411;-61
2022/12/30 12:43:44;;;;;;;5.10;2.25;;;9.60;97.00;;;;;;5116699;28;20408;-61
2022/12/30 12:46:28;;;;;;;5.78;2.10;;;9.60;97.10;;;;;;5117218;28;20426;-62
2022/12/30 12:49:19;;;;;;;5.32;2.25;;;9.60;97.10;;;;;;5118611;28;20453;-63
2022/12/30 12:52:00;;;;;;;6.32;2.00;;;9.60;97.30;;;;;;5118174;28;20431;-61
2022/12/30 12:54:41;;;;;;;4.93;2.08;;;9.60;97.50;;;;;;5117907;28;20412;-62
2022/12/30 12:57:19;;;;;;;4.85;2.33;;;9.60;97.50;;;;;;5118700;28;20412;-62
2022/12/30 13:00:07;;;;;;;7.15;2.05;;;9.50;97.40;;;;;;5118538;28;20415;-62
2022/12/30 13:03:01;;;;;;;3.87;1.80;;;9.50;97.50;;;;;;5117608;28;20802;-62
2022/12/30 13:05:34;;;;;;;6.30;1.92;;;9.50;97.30;;;;;;5119036;28;20911;-61
2022/12/30 13:08:10;;;;;;;2.72;1.60;;;9.50;97.30;;;;;;5120279;28;20416;-62
2022/12/30 13:10:44;;;;;;;5.75;2.20;;;9.50;97.50;;;;;;5122706;28;20593;-63
2022/12/30 13:13:17;;;;;;;5.38;1.73;;;9.50;97.40;;;;;;5120078;28;20442;-61
2022/12/30 13:15:49;;;;;;;4.28;2.00;;;9.50;97.30;;;;;;5118709;28;20420;-61
2022/12/30 13:18:19;;;;;;;4.95;1.95;;;9.50;97.50;;;;;;5118958;28;20408;-61
2022/12/30 13:20:49;;;;;;;3.50;1.50;;;9.50;97.30;;;;;;5119220;28;20419;-60
2022/12/30 13:23:21;;;;;;;5.63;2.00;;;9.40;97.60;;;;;;5117554;28;20436;-62
2022/12/30 13:25:52;;;;;;;3.05;1.63;;;9.40;97.30;;;;;;5118590;28;20450;-61
2022/12/30 13:28:23;;;;;;;5.88;1.98;;;9.40;97.40;;;;;;5118095;28;20420;-61
2022/12/30 13:31:05;;;;;;;4.07;1.80;;;9.40;97.20;;;;;;5117429;28;20465;-62
2022/12/30 13:33:41;;;;;;;5.57;1.80;;;9.50;97.20;;;;;;5116357;28;20423;-62
2022/12/30 13:36:16;;;;;;;4.68;1.60;;;9.40;97.10;;;;;;5116858;28;20408;-62
2022/12/30 13:38:58;;;;;;;3.25;1.45;;;9.40;97.40;;;;;;5116020;28;20412;-62
2022/12/30 13:41:38;;;;;;;4.95;2.05;;;9.40;97.50;;;;;;5116273;28;20776;-63
2022/12/30 13:44:13;;;;;;;3.85;1.80;;;9.40;97.50;;;;;;5117100;28;20422;-62
2022/12/30 13:46:48;;;;;;;4.93;2.70;;;9.40;97.50;;;;;;5117378;28;20412;-62
2022/12/30 13:49:23;;;;;;;5.97;3.88;;;9.40;97.50;;;;;;5118309;28;20420;-61
2022/12/30 13:51:55;;;;;;;23.30;13.88;;;9.40;97.60;;;;;;5117867;28;20431;-61
2022/12/30 13:54:22;;;;;;;17.65;11.23;;;9.40;97.70;;;;;;5117340;28;20877;-63
2022/12/30 13:56:51;;;;;;;21.83;13.23;;;9.40;97.70;;;;;;5116924;28;20880;-61
2022/12/30 13:59:25;;;;;;;15.55;9.73;;;9.30;97.60;;;;;;5117596;28;20435;-61
2022/12/30 14:02:30;;;;;;;22.63;13.60;;;9.40;97.60;;;;;;5115650;28;20499;-61
2022/12/30 14:05:00;;;;;;;53.58;35.55;;;9.30;97.70;;;;;;5114980;28;20416;-62
2022/12/30 14:07:49;;;;;;;5.30;3.33;;;9.30;97.70;;;;;;5114848;28;20446;-63
2022/12/30 14:11:06;;;;;;;18.00;10.23;;;9.30;97.50;;;;;;5114920;28;20450;-61
2022/12/30 14:13:36;;;;;;;8.25;3.20;;;9.30;97.40;;;;;;5114886;28;20425;-61
2022/12/30 14:16:11;;;;;;;9.87;3.90;;;9.30;97.30;;;;;;5115459;28;20419;-61